EGEO/OBN METAR and TAF weather

Enter ICAO airport designator
Station Type Date Time Source
EGEO METAR 2021/06/23 15:20 UTC NOAA

EGEO 231520Z 25008KT 4000 -DZ OVC009 14/13 Q1023


Station Type Date Time Source
EGEO Decoded METAR 2021/06/23 15:20 UTC NOAA

Station name not available
Jun 23, 2021 - 11:20 AM EDT / 2021.06.23 1520 UTC
Wind: from the WSW (250 degrees) at 9 MPH (8 KT):0
Visibility: 2 mile(s):0
Sky conditions: overcast
Weather: light drizzle
Temperature: 57 F (14 C)
Dew Point: 55 F (13 C)
Relative Humidity: 93%
Pressure (altimeter): 30.21 in. Hg (1023 hPa)
ob: EGEO 231520Z 25008KT 4000 -DZ OVC009 14/13 Q1023
cycle: 15

Station Type Date Time Source
EGEO TAF UTC NOAA

Error!

Example: see airport list